^^
Station Historical Data
Daily Summary for September 7, 2017 Units:  Both    English   Metric
« Previous Day
Next Day »
Daily Weekly Monthly Yearly Custom
  High: Low: Average:
Temperature: TemperatureF °F /  -17.8 °C 51.3 °F /  10.7 °C 67 °F /  19.4 °C
Dew Point: DewpointF °F /  -17.8 °C 20.1 °F /  -6.6 °C 29.3 °F /  -1.5 °C
Humidity: Humidity% 9% 28%
Wind Speed: WindSpeedMPHmph /  0km/h - 0.8mph /  1.3km/h
Wind Gust: WindSpeedGustMPHmph /  0km/h - -
Wind- - SSW
Pressure: PressureIn in /  0 hPa 30.20 in /  1022.6 hPa -
Precipitation: 0.00 in /  0 mm    
Historical Graphs
 
 
Tabular Data for September 7, 2017
Time Temperature Dew Point Pressure Wind Wind Speed Wind Gust Humidity Rainfall Rate (Hourly) solar Conditions
TemperatureF °F /  -17.8 °C DewpointF °F /  -17.8 °C PressureInin /  0hPa Calm     Humidity% HourlyPrecipInin /  0mm SolarRadiationWatts/m^2 W/m2 Conditions
00:05 57.6 °F /  14.2 °C 32.2 °F /  0.1 °C 30.32in /  1026.6hPa Calm     38% 0.00in /  0mm 0.0 W/m2
00:11 57.4 °F /  14.1 °C 32.5 °F /  0.3 °C 30.32in /  1026.6hPa Calm     39% 0.00in /  0mm 0.0 W/m2
00:17 57.0 °F /  13.9 °C 32.4 °F /  0.2 °C 30.32in /  1026.6hPa Calm     39% 0.00in /  0mm 0.0 W/m2
00:23 57.0 °F /  13.9 °C 32.9 °F /  0.5 °C 30.32in /  1026.6hPa Calm     40% 0.00in /  0mm 0.0 W/m2
00:29 56.7 °F /  13.7 °C 32.5 °F /  0.3 °C 30.32in /  1026.6hPa Calm     40% 0.00in /  0mm 0.0 W/m2
00:35 56.7 °F /  13.7 °C 32.5 °F /  0.3 °C 30.32in /  1026.6hPa Calm     40% 0.00in /  0mm 0.0 W/m2
00:41 56.5 °F /  13.6 °C 32.4 °F /  0.2 °C 30.32in /  1026.6hPa Calm     40% 0.00in /  0mm 0.0 W/m2
00:47 56.3 °F /  13.5 °C 32.9 °F /  0.5 °C 30.32in /  1026.6hPa Calm   1.0mph /  1.6km/h 41% 0.00in /  0mm 0.0 W/m2
00:53 56.1 °F /  13.4 °C 32.7 °F /  0.4 °C 30.32in /  1026.6hPa Calm   3.0mph /  4.8km/h 41% 0.00in /  0mm 0.0 W/m2
01:00 56.1 °F /  13.4 °C 32.7 °F /  0.4 °C 30.32in /  1026.6hPa Calm     41% 0.00in /  0mm 0.0 W/m2
01:06 55.9 °F /  13.3 °C 33.3 °F /  0.7 °C 30.32in /  1026.6hPa Calm     42% 0.00in /  0mm 0.0 W/m2
01:12 55.9 °F /  13.3 °C 33.3 °F /  0.7 °C 30.32in /  1026.6hPa Calm     42% 0.00in /  0mm 0.0 W/m2
01:18 55.8 °F /  13.2 °C 33.1 °F /  0.6 °C 30.32in /  1026.6hPa Calm     42% 0.00in /  0mm 0.0 W/m2
01:24 55.6 °F /  13.1 °C 33.4 °F /  0.8 °C 30.31in /  1026.3hPa Calm     43% 0.00in /  0mm 0.0 W/m2
01:30 55.2 °F /  12.9 °C 33.6 °F /  0.9 °C 30.32in /  1026.6hPa Calm   1.0mph /  1.6km/h 44% 0.00in /  0mm 0.0 W/m2
01:36 55.0 °F /  12.8 °C 34.2 °F /  1.2 °C 30.31in /  1026.3hPa Calm     45% 0.00in /  0mm 0.0 W/m2
01:42 55.2 °F /  12.9 °C 34.2 °F /  1.2 °C 30.31in /  1026.3hPa Calm     45% 0.00in /  0mm 0.0 W/m2
01:49 55.2 °F /  12.9 °C 34.2 °F /  1.2 °C 30.31in /  1026.3hPa Calm     45% 0.00in /  0mm 0.0 W/m2
01:55 55.2 °F /  12.9 °C 34.2 °F /  1.2 °C 30.31in /  1026.3hPa Calm     45% 0.00in /  0mm 0.0 W/m2
02:01 54.9 °F /  12.7 °C 34.0 °F /  1.1 °C 30.31in /  1026.3hPa Calm     45% 0.00in /  0mm 0.0 W/m2
02:07 54.9 °F /  12.7 °C 34.5 °F /  1.4 °C 30.31in /  1026.3hPa Calm     46% 0.00in /  0mm 0.0 W/m2
02:13 54.9 °F /  12.7 °C 35.1 °F /  1.7 °C 30.31in /  1026.3hPa Calm     47% 0.00in /  0mm 0.0 W/m2
02:19 54.9 °F /  12.7 °C 35.1 °F /  1.7 °C 30.30in /  1026hPa Calm     47% 0.00in /  0mm 0.0 W/m2
02:26 54.9 °F /  12.7 °C 35.1 °F /  1.7 °C 30.30in /  1026hPa Calm   1.0mph /  1.6km/h 47% 0.00in /  0mm 0.0 W/m2
02:32 54.9 °F /  12.7 °C 35.1 °F /  1.7 °C 30.31in /  1026.3hPa Calm   1.0mph /  1.6km/h 47% 0.00in /  0mm 0.0 W/m2
02:38 54.7 °F /  12.6 °C 34.9 °F /  1.6 °C 30.31in /  1026.3hPa ESE 0.9mph /  1.4km/h 1.0mph /  1.6km/h 47% 0.00in /  0mm 0.0 W/m2
02:44 54.5 °F /  12.5 °C 35.2 °F /  1.8 °C 30.30in /  1026hPa Calm     48% 0.00in /  0mm 0.0 W/m2
02:50 54.3 °F /  12.4 °C 35.1 °F /  1.7 °C 30.30in /  1026hPa Calm     48% 0.00in /  0mm 0.0 W/m2
02:56 54.3 °F /  12.4 °C 35.6 °F /  2 °C 30.30in /  1026hPa Calm     49% 0.00in /  0mm 0.0 W/m2
03:02 54.3 °F /  12.4 °C 35.6 °F /  2 °C 30.30in /  1026hPa SE 2.0mph /  3.2km/h 2.0mph /  3.2km/h 49% 0.00in /  0mm 0.0 W/m2
03:09 54.3 °F /  12.4 °C 35.6 °F /  2 °C 30.30in /  1026hPa Calm   1.0mph /  1.6km/h 49% 0.00in /  0mm 0.0 W/m2
03:15 54.3 °F /  12.4 °C 35.6 °F /  2 °C 30.30in /  1026hPa Calm     49% 0.00in /  0mm 0.0 W/m2
03:21 54.3 °F /  12.4 °C 35.6 °F /  2 °C 30.30in /  1026hPa Calm   2.0mph /  3.2km/h 49% 0.00in /  0mm 0.0 W/m2
03:27 54.3 °F /  12.4 °C 35.1 °F /  1.7 °C 30.30in /  1026hPa Calm   2.0mph /  3.2km/h 48% 0.00in /  0mm 0.0 W/m2
03:33 54.1 °F /  12.3 °C 35.4 °F /  1.9 °C 30.29in /  1025.6hPa Calm   2.0mph /  3.2km/h 49% 0.00in /  0mm 0.0 W/m2
03:39 54.1 °F /  12.3 °C 34.9 °F /  1.6 °C 30.29in /  1025.6hPa Calm   1.0mph /  1.6km/h 48% 0.00in /  0mm 0.0 W/m2
03:45 54.1 °F /  12.3 °C 34.9 °F /  1.6 °C 30.29in /  1025.6hPa Calm     48% 0.00in /  0mm 0.0 W/m2
03:51 53.6 °F /  12 °C 34.9 °F /  1.6 °C 30.29in /  1025.6hPa Calm     49% 0.00in /  0mm 0.0 W/m2
03:57 53.1 °F /  11.7 °C 34.3 °F /  1.3 °C 30.29in /  1025.6hPa Calm     49% 0.00in /  0mm 0.0 W/m2
04:04 52.7 °F /  11.5 °C 34.5 °F /  1.4 °C 30.28in /  1025.3hPa ESE 2.0mph /  3.2km/h 2.0mph /  3.2km/h 50% 0.00in /  0mm 0.0 W/m2
04:10 52.5 °F /  11.4 °C 34.3 °F /  1.3 °C 30.28in /  1025.3hPa Calm   5.0mph /  8km/h 50% 0.00in /  0mm 0.0 W/m2
04:16 52.9 °F /  11.6 °C 34.7 °F /  1.5 °C 30.28in /  1025.3hPa Calm   1.0mph /  1.6km/h 50% 0.00in /  0mm 0.0 W/m2
04:22 53.1 °F /  11.7 °C 34.9 °F /  1.6 °C 30.28in /  1025.3hPa Calm   2.0mph /  3.2km/h 50% 0.00in /  0mm 0.0 W/m2
04:28 53.2 °F /  11.8 °C 34.5 °F /  1.4 °C 30.28in /  1025.3hPa ENE 0.9mph /  1.4km/h 2.0mph /  3.2km/h 49% 0.00in /  0mm 0.0 W/m2
04:34 53.4 °F /  11.9 °C 34.2 °F /  1.2 °C 30.27in /  1024.9hPa Calm   1.0mph /  1.6km/h 48% 0.00in /  0mm 0.0 W/m2
04:41 53.1 °F /  11.7 °C 33.4 °F /  0.8 °C 30.28in /  1025.3hPa SE 0.9mph /  1.4km/h 2.0mph /  3.2km/h 47% 0.00in /  0mm 0.0 W/m2
04:47 53.1 °F /  11.7 °C 33.4 °F /  0.8 °C 30.28in /  1025.3hPa Calm   1.0mph /  1.6km/h 47% 0.00in /  0mm 0.0 W/m2
04:53 53.2 °F /  11.8 °C 33.1 °F /  0.6 °C 30.27in /  1024.9hPa SE 0.9mph /  1.4km/h 2.0mph /  3.2km/h 46% 0.00in /  0mm 0.0 W/m2
04:59 53.4 °F /  11.9 °C 33.1 °F /  0.6 °C 30.27in /  1024.9hPa Calm   1.0mph /  1.6km/h 46% 0.00in /  0mm 0.0 W/m2
05:05 53.4 °F /  11.9 °C 33.1 °F /  0.6 °C 30.27in /  1024.9hPa Calm   2.0mph /  3.2km/h 46% 0.00in /  0mm 0.0 W/m2
05:24 53.2 °F /  11.8 °C 31.8 °F /  -0.1 °C 30.28in /  1025.3hPa Calm     44% 0.00in /  0mm 0.0 W/m2
05:30 53.1 °F /  11.7 °C 31.6 °F /  -0.2 °C 30.28in /  1025.3hPa Calm   1.0mph /  1.6km/h 44% 0.00in /  0mm 0.0 W/m2
05:36 52.9 °F /  11.6 °C 32.2 °F /  0.1 °C 30.28in /  1025.3hPa Calm   2.0mph /  3.2km/h 45% 0.00in /  0mm 0.0 W/m2
05:38 52.7 °F /  11.5 °C 32.0 °F /  0 °C 30.28in /  1025.3hPa Calm   2.0mph /  3.2km/h 45% 0.00in /  0mm 0.0 W/m2
05:42 52.5 °F /  11.4 °C 31.8 °F /  -0.1 °C 30.28in /  1025.3hPa Calm   2.0mph /  3.2km/h 45% 0.00in /  0mm 0.0 W/m2
05:48 52.3 °F /  11.3 °C 31.6 °F /  -0.2 °C 30.28in /  1025.3hPa Calm     45% 0.00in /  0mm 0.0 W/m2
05:54 52.0 °F /  11.1 °C 31.8 °F /  -0.1 °C 30.28in /  1025.3hPa Calm   1.0mph /  1.6km/h 46% 0.00in /  0mm 0.0 W/m2
05:58 51.6 °F /  10.9 °C 31.5 °F /  -0.3 °C 30.28in /  1025.3hPa Calm     46% 0.00in /  0mm 0.0 W/m2
06:00 51.4 °F /  10.8 °C 31.8 °F /  -0.1 °C 30.28in /  1025.3hPa Calm     47% 0.00in /  0mm 0.0 W/m2
06:07 51.3 °F /  10.7 °C 31.6 °F /  -0.2 °C 30.28in /  1025.3hPa SE 0.9mph /  1.4km/h 4.0mph /  6.4km/h 47% 0.00in /  0mm 0.0 W/m2
06:13 51.4 °F /  10.8 °C 31.8 °F /  -0.1 °C 30.28in /  1025.3hPa Calm     47% 0.00in /  0mm 0.0 W/m2
06:19 51.8 °F /  11 °C 32.2 °F /  0.1 °C 30.29in /  1025.6hPa Calm     47% 0.00in /  0mm 0.0 W/m2
06:25 52.2 °F /  11.2 °C 32.5 °F /  0.3 °C 30.28in /  1025.3hPa Calm   1.0mph /  1.6km/h 47% 0.00in /  0mm 0.0 W/m2
06:31 52.5 °F /  11.4 °C 32.9 °F /  0.5 °C 30.29in /  1025.6hPa Calm     47% 0.00in /  0mm 0.0 W/m2
06:37 52.3 °F /  11.3 °C 32.7 °F /  0.4 °C 30.29in /  1025.6hPa East 0.9mph /  1.4km/h 2.0mph /  3.2km/h 47% 0.00in /  0mm 0.0 W/m2
06:41 52.3 °F /  11.3 °C 32.7 °F /  0.4 °C 30.29in /  1025.6hPa Calm     47% 0.00in /  0mm 0.0 W/m2
06:48 52.3 °F /  11.3 °C 32.7 °F /  0.4 °C 30.29in /  1025.6hPa Calm   2.0mph /  3.2km/h 47% 0.00in /  0mm 0.0 W/m2
06:54 52.5 °F /  11.4 °C 33.4 °F /  0.8 °C 30.29in /  1025.6hPa Calm   1.0mph /  1.6km/h 48% 0.00in /  0mm 0.0 W/m2
07:00 52.5 °F /  11.4 °C 33.4 °F /  0.8 °C 30.30in /  1026hPa Calm   1.0mph /  1.6km/h 48% 0.00in /  0mm 0.0 W/m2
07:06 52.9 °F /  11.6 °C 33.8 °F /  1 °C 30.30in /  1026hPa Calm   1.0mph /  1.6km/h 48% 0.00in /  0mm 7.0 W/m2
07:12 52.9 °F /  11.6 °C 33.8 °F /  1 °C 30.30in /  1026hPa Calm   1.0mph /  1.6km/h 48% 0.00in /  0mm 12.0 W/m2
07:18 53.1 °F /  11.7 °C 33.8 °F /  1 °C 30.30in /  1026hPa Calm   1.0mph /  1.6km/h 48% 0.00in /  0mm 18.0 W/m2
07:24 53.1 °F /  11.7 °C 34.3 °F /  1.3 °C 30.31in /  1026.3hPa Calm     49% 0.00in /  0mm 23.0 W/m2
07:31 52.9 °F /  11.6 °C 34.7 °F /  1.5 °C 30.31in /  1026.3hPa Calm     50% 0.00in /  0mm 28.0 W/m2
07:37 52.5 °F /  11.4 °C 34.3 °F /  1.3 °C 30.31in /  1026.3hPa Calm     50% 0.00in /  0mm 33.0 W/m2
07:43 52.5 °F /  11.4 °C 34.9 °F /  1.6 °C 30.31in /  1026.3hPa Calm   1.0mph /  1.6km/h 51% 0.00in /  0mm 40.0 W/m2
07:49 52.3 °F /  11.3 °C 35.2 °F /  1.8 °C 30.31in /  1026.3hPa Calm   2.0mph /  3.2km/h 52% 0.00in /  0mm 46.0 W/m2
07:55 52.5 °F /  11.4 °C 35.4 °F /  1.9 °C 30.31in /  1026.3hPa Calm   2.0mph /  3.2km/h 52% 0.00in /  0mm 51.0 W/m2
08:01 53.1 °F /  11.7 °C 36.0 °F /  2.2 °C 30.32in /  1026.6hPa ENE 0.9mph /  1.4km/h 1.0mph /  1.6km/h 52% 0.00in /  0mm 56.0 W/m2
08:07 53.8 °F /  12.1 °C 36.1 °F /  2.3 °C 30.32in /  1026.6hPa East 0.9mph /  1.4km/h 1.0mph /  1.6km/h 51% 0.00in /  0mm 62.0 W/m2
08:13 54.7 °F /  12.6 °C 36.0 °F /  2.2 °C 30.32in /  1026.6hPa Calm   4.0mph /  6.4km/h 49% 0.00in /  0mm 67.0 W/m2
08:20 55.6 °F /  13.1 °C 36.1 °F /  2.3 °C 30.32in /  1026.6hPa Calm   3.0mph /  4.8km/h 48% 0.00in /  0mm 76.0 W/m2
08:26 56.5 °F /  13.6 °C 36.0 °F /  2.2 °C 30.32in /  1026.6hPa Calm   2.0mph /  3.2km/h 46% 0.00in /  0mm 76.0 W/m2
08:32 57.2 °F /  14 °C 36.0 °F /  2.2 °C 30.32in /  1026.6hPa NE 2.0mph /  3.2km/h 5.0mph /  8km/h 45% 0.00in /  0mm 83.0 W/m2
08:38 58.5 °F /  14.7 °C 36.7 °F /  2.6 °C 30.32in /  1026.6hPa ENE 2.0mph /  3.2km/h 2.0mph /  3.2km/h 44% 0.00in /  0mm 88.0 W/m2
08:44 59.5 °F /  15.3 °C 36.5 °F /  2.5 °C 30.32in /  1026.6hPa East 0.9mph /  1.4km/h 4.0mph /  6.4km/h 42% 0.00in /  0mm 93.0 W/m2
08:50 60.8 °F /  16 °C 36.3 °F /  2.4 °C 30.32in /  1026.6hPa NE 4.0mph /  6.4km/h 5.0mph /  8km/h 40% 0.00in /  0mm 97.0 W/m2
08:56 62.2 °F /  16.8 °C 36.3 °F /  2.4 °C 30.32in /  1026.6hPa ENE 0.9mph /  1.4km/h 5.0mph /  8km/h 38% 0.00in /  0mm 100.0 W/m2
09:03 63.1 °F /  17.3 °C 36.5 °F /  2.5 °C 30.33in /  1027hPa East 2.0mph /  3.2km/h 5.0mph /  8km/h 37% 0.00in /  0mm 105.0 W/m2
09:09 64.2 °F /  17.9 °C 36.7 °F /  2.6 °C 30.32in /  1026.6hPa Calm   6.0mph /  9.7km/h 36% 0.00in /  0mm 111.0 W/m2
09:15 65.1 °F /  18.4 °C 37.6 °F /  3.1 °C 30.33in /  1027hPa NE 2.9mph /  4.7km/h 4.0mph /  6.4km/h 36% 0.00in /  0mm 116.0 W/m2
09:21 66.0 °F /  18.9 °C 37.6 °F /  3.1 °C 30.33in /  1027hPa Calm   1.0mph /  1.6km/h 35% 0.00in /  0mm 120.0 W/m2
09:27 66.7 °F /  19.3 °C 37.4 °F /  3 °C 30.33in /  1027hPa ENE 0.9mph /  1.4km/h 5.0mph /  8km/h 34% 0.00in /  0mm 125.0 W/m2
09:33 67.6 °F /  19.8 °C 37.6 °F /  3.1 °C 30.33in /  1027hPa NE 2.9mph /  4.7km/h 4.0mph /  6.4km/h 33% 0.00in /  0mm 132.0 W/m2
09:39 68.4 °F /  20.2 °C 38.1 °F /  3.4 °C 30.33in /  1027hPa NE 2.0mph /  3.2km/h 5.0mph /  8km/h 33% 0.00in /  0mm 420.0 W/m2
09:45 69.3 °F /  20.7 °C 37.4 °F /  3 °C 30.33in /  1027hPa Calm   4.0mph /  6.4km/h 31% 0.00in /  0mm 438.0 W/m2
09:52 70.3 °F /  21.3 °C 38.3 °F /  3.5 °C 30.33in /  1027hPa NE 4.0mph /  6.4km/h 4.0mph /  6.4km/h 31% 0.00in /  0mm 459.0 W/m2
09:58 71.2 °F /  21.8 °C 38.3 °F /  3.5 °C 30.33in /  1027hPa ENE 2.0mph /  3.2km/h 3.0mph /  4.8km/h 30% 0.00in /  0mm 476.0 W/m2
10:04 72.1 °F /  22.3 °C 37.2 °F /  2.9 °C 30.33in /  1027hPa Calm   2.0mph /  3.2km/h 28% 0.00in /  0mm 494.0 W/m2
10:10 73.0 °F /  22.8 °C 36.1 °F /  2.3 °C 30.33in /  1027hPa Calm     26% 0.00in /  0mm 512.0 W/m2
10:16 73.6 °F /  23.1 °C 36.5 °F /  2.5 °C 30.32in /  1026.6hPa NE 0.9mph /  1.4km/h 1.0mph /  1.6km/h 26% 0.00in /  0mm 531.0 W/m2
10:22 74.5 °F /  23.6 °C 36.3 °F /  2.4 °C 30.33in /  1027hPa ENE 2.0mph /  3.2km/h 4.0mph /  6.4km/h 25% 0.00in /  0mm 545.0 W/m2
10:28 75.0 °F /  23.9 °C 36.9 °F /  2.7 °C 30.33in /  1027hPa ENE 0.9mph /  1.4km/h 3.0mph /  4.8km/h 25% 0.00in /  0mm 561.0 W/m2
10:34 75.6 °F /  24.2 °C 36.3 °F /  2.4 °C 30.32in /  1026.6hPa Calm   2.0mph /  3.2km/h 24% 0.00in /  0mm 577.0 W/m2
10:41 75.7 °F /  24.3 °C 36.3 °F /  2.4 °C 30.32in /  1026.6hPa Calm   1.0mph /  1.6km/h 24% 0.00in /  0mm 592.0 W/m2
10:47 75.9 °F /  24.4 °C 36.5 °F /  2.5 °C 30.32in /  1026.6hPa Calm   2.0mph /  3.2km/h 24% 0.00in /  0mm 610.0 W/m2
10:53 76.5 °F /  24.7 °C 36.0 °F /  2.2 °C 30.32in /  1026.6hPa Calm   2.0mph /  3.2km/h 23% 0.00in /  0mm 621.0 W/m2
10:59 77.2 °F /  25.1 °C 35.4 °F /  1.9 °C 30.32in /  1026.6hPa Calm   1.0mph /  1.6km/h 22% 0.00in /  0mm 635.0 W/m2
11:05 77.9 °F /  25.5 °C 34.9 °F /  1.6 °C 30.32in /  1026.6hPa WSW 2.0mph /  3.2km/h 5.0mph /  8km/h 21% 0.00in /  0mm 650.0 W/m2
11:11 78.6 °F /  25.9 °C 31.6 °F /  -0.2 °C 30.32in /  1026.6hPa North 4.0mph /  6.4km/h 5.0mph /  8km/h 18% 0.00in /  0mm 659.0 W/m2
11:17 79.2 °F /  26.2 °C 32.0 °F /  0 °C 30.31in /  1026.3hPa NNE 0.9mph /  1.4km/h 1.0mph /  1.6km/h 18% 0.00in /  0mm 668.0 W/m2
11:28 79.9 °F /  26.6 °C 31.1 °F /  -0.5 °C 30.31in /  1026.3hPa West 2.0mph /  3.2km/h 5.0mph /  8km/h 17% 0.00in /  0mm 687.0 W/m2
11:34 80.2 °F /  26.8 °C 31.5 °F /  -0.3 °C 30.31in /  1026.3hPa NW 2.0mph /  3.2km/h 9.0mph /  14.5km/h 17% 0.00in /  0mm 694.0 W/m2
11:40 80.6 °F /  27 °C 30.2 °F /  -1 °C 30.31in /  1026.3hPa NW 2.9mph /  4.7km/h 6.0mph /  9.7km/h 16% 0.00in /  0mm 701.0 W/m2
11:46 80.8 °F /  27.1 °C 30.4 °F /  -0.9 °C 30.30in /  1026hPa WSW 0.9mph /  1.4km/h 4.0mph /  6.4km/h 16% 0.00in /  0mm 712.0 W/m2
11:52 81.0 °F /  27.2 °C 30.6 °F /  -0.8 °C 30.30in /  1026hPa North 2.9mph /  4.7km/h 5.0mph /  8km/h 16% 0.00in /  0mm 717.0 W/m2
11:58 81.3 °F /  27.4 °C 30.9 °F /  -0.6 °C 30.30in /  1026hPa West 2.0mph /  3.2km/h 5.0mph /  8km/h 16% 0.00in /  0mm 726.0 W/m2
12:04 81.3 °F /  27.4 °C 30.9 °F /  -0.6 °C 30.30in /  1026hPa WNW 0.9mph /  1.4km/h 3.0mph /  4.8km/h 16% 0.00in /  0mm 731.0 W/m2
12:10 81.9 °F /  27.7 °C 31.3 °F /  -0.4 °C 30.30in /  1026hPa West 0.9mph /  1.4km/h 2.0mph /  3.2km/h 16% 0.00in /  0mm 738.0 W/m2
12:17 81.7 °F /  27.6 °C 31.1 °F /  -0.5 °C 30.30in /  1026hPa WSW 2.0mph /  3.2km/h 6.0mph /  9.7km/h 16% 0.00in /  0mm 737.0 W/m2
12:23 81.5 °F /  27.5 °C 32.5 °F /  0.3 °C 30.29in /  1025.6hPa WNW 2.0mph /  3.2km/h 5.0mph /  8km/h 17% 0.00in /  0mm 742.0 W/m2
12:29 81.9 °F /  27.7 °C 32.7 °F /  0.4 °C 30.29in /  1025.6hPa Calm   7.0mph /  11.3km/h 17% 0.00in /  0mm 749.0 W/m2
12:35 82.6 °F /  28.1 °C 33.4 °F /  0.8 °C 30.28in /  1025.3hPa Calm   3.0mph /  4.8km/h 17% 0.00in /  0mm 749.0 W/m2
12:41 83.1 °F /  28.4 °C 32.4 °F /  0.2 °C 30.28in /  1025.3hPa WNW 2.9mph /  4.7km/h 5.0mph /  8km/h 16% 0.00in /  0mm 751.0 W/m2
12:47 83.7 °F /  28.7 °C 32.7 °F /  0.4 °C 30.28in /  1025.3hPa NNW 0.9mph /  1.4km/h 6.0mph /  9.7km/h 16% 0.00in /  0mm 751.0 W/m2
12:54 83.8 °F /  28.8 °C 31.3 °F /  -0.4 °C 30.28in /  1025.3hPa Calm   5.0mph /  8km/h 15% 0.00in /  0mm 747.0 W/m2
13:00 84.0 °F /  28.9 °C 31.5 °F /  -0.3 °C 30.27in /  1024.9hPa West 0.9mph /  1.4km/h 5.0mph /  8km/h 15% 0.00in /  0mm 752.0 W/m2
13:06 83.8 °F /  28.8 °C 31.3 °F /  -0.4 °C 30.28in /  1025.3hPa NNW 2.0mph /  3.2km/h 7.0mph /  11.3km/h 15% 0.00in /  0mm 751.0 W/m2
13:12 83.8 °F /  28.8 °C 29.5 °F /  -1.4 °C 30.27in /  1024.9hPa Calm   3.0mph /  4.8km/h 14% 0.00in /  0mm 754.0 W/m2
13:18 84.0 °F /  28.9 °C 31.5 °F /  -0.3 °C 30.27in /  1024.9hPa NNW 0.9mph /  1.4km/h 5.0mph /  8km/h 15% 0.00in /  0mm 742.0 W/m2
13:24 84.4 °F /  29.1 °C 30.0 °F /  -1.1 °C 30.27in /  1024.9hPa Calm   7.0mph /  11.3km/h 14% 0.00in /  0mm 745.0 W/m2
13:30 84.6 °F /  29.2 °C 28.4 °F /  -2 °C 30.26in /  1024.6hPa NNW 2.0mph /  3.2km/h 9.0mph /  14.5km/h 13% 0.00in /  0mm 738.0 W/m2
13:36 84.6 °F /  29.2 °C 30.2 °F /  -1 °C 30.26in /  1024.6hPa NNW 2.9mph /  4.7km/h 8.0mph /  12.9km/h 14% 0.00in /  0mm 733.0 W/m2
13:42 84.6 °F /  29.2 °C 30.2 °F /  -1 °C 30.26in /  1024.6hPa North 6.0mph /  9.7km/h 8.0mph /  12.9km/h 14% 0.00in /  0mm 724.0 W/m2
13:48 84.4 °F /  29.1 °C 28.2 °F /  -2.1 °C 30.25in /  1024.3hPa WNW 0.9mph /  1.4km/h 6.0mph /  9.7km/h 13% 0.00in /  0mm 745.0 W/m2
13:55 84.6 °F /  29.2 °C 30.2 °F /  -1 °C 30.25in /  1024.3hPa NNW 4.9mph /  7.9km/h 6.0mph /  9.7km/h 14% 0.00in /  0mm 715.0 W/m2
14:01 84.7 °F /  29.3 °C 30.2 °F /  -1 °C 30.25in /  1024.3hPa Calm   2.0mph /  3.2km/h 14% 0.00in /  0mm 700.0 W/m2
14:07 84.9 °F /  29.4 °C 30.4 °F /  -0.9 °C 30.25in /  1024.3hPa Calm   4.0mph /  6.4km/h 14% 0.00in /  0mm 687.0 W/m2
14:13 85.1 °F /  29.5 °C 30.6 °F /  -0.8 °C 30.24in /  1023.9hPa WSW 4.0mph /  6.4km/h 7.0mph /  11.3km/h 14% 0.00in /  0mm 680.0 W/m2
14:19 85.3 °F /  29.6 °C 30.7 °F /  -0.7 °C 30.24in /  1023.9hPa North 6.0mph /  9.7km/h 10.0mph /  16.1km/h 14% 0.00in /  0mm 677.0 W/m2
14:25 85.5 °F /  29.7 °C 30.9 °F /  -0.6 °C 30.24in /  1023.9hPa North 2.0mph /  3.2km/h 4.0mph /  6.4km/h 14% 0.00in /  0mm 659.0 W/m2
14:31 85.6 °F /  29.8 °C 29.1 °F /  -1.6 °C 30.24in /  1023.9hPa WNW 6.9mph /  11.1km/h 8.0mph /  12.9km/h 13% 0.00in /  0mm 649.0 W/m2
14:38 85.6 °F /  29.8 °C 27.1 °F /  -2.7 °C 30.24in /  1023.9hPa NNW 4.9mph /  7.9km/h 10.0mph /  16.1km/h 12% 0.00in /  0mm 636.0 W/m2
14:44 85.3 °F /  29.6 °C 27.0 °F /  -2.8 °C 30.23in /  1023.6hPa WNW 4.0mph /  6.4km/h 8.0mph /  12.9km/h 12% 0.00in /  0mm 622.0 W/m2
14:50 85.3 °F /  29.6 °C 22.6 °F /  -5.2 °C 30.23in /  1023.6hPa WSW 2.0mph /  3.2km/h 7.0mph /  11.3km/h 10% 0.00in /  0mm 613.0 W/m2
14:56 84.9 °F /  29.4 °C 22.3 °F /  -5.4 °C 30.23in /  1023.6hPa WNW 6.9mph /  11.1km/h 11.0mph /  17.7km/h 10% 0.00in /  0mm 598.0 W/m2
15:02 84.9 °F /  29.4 °C 24.6 °F /  -4.1 °C 30.23in /  1023.6hPa NNW 0.9mph /  1.4km/h 5.0mph /  8km/h 11% 0.00in /  0mm 587.0 W/m2
15:08 85.3 °F /  29.6 °C 22.6 °F /  -5.2 °C 30.23in /  1023.6hPa Calm   6.0mph /  9.7km/h 10% 0.00in /  0mm 570.0 W/m2
15:14 85.3 °F /  29.6 °C 22.6 °F /  -5.2 °C 30.22in /  1023.2hPa WNW 0.9mph /  1.4km/h 7.0mph /  11.3km/h 10% 0.00in /  0mm 554.0 W/m2
15:20 85.3 °F /  29.6 °C 22.6 °F /  -5.2 °C 30.22in /  1023.2hPa Calm   3.0mph /  4.8km/h 10% 0.00in /  0mm 538.0 W/m2
15:27 85.1 °F /  29.5 °C 22.5 °F /  -5.3 °C 30.22in /  1023.2hPa NW 0.9mph /  1.4km/h 7.0mph /  11.3km/h 10% 0.00in /  0mm 517.0 W/m2
15:33 85.3 °F /  29.6 °C 22.6 °F /  -5.2 °C 30.22in /  1023.2hPa Calm   7.0mph /  11.3km/h 10% 0.00in /  0mm 503.0 W/m2
15:39 85.5 °F /  29.7 °C 22.6 °F /  -5.2 °C 30.22in /  1023.2hPa West 8.1mph /  13km/h 8.1mph /  13km/h 10% 0.00in /  0mm 490.0 W/m2
15:45 85.5 °F /  29.7 °C 22.6 °F /  -5.2 °C 30.22in /  1023.2hPa West 2.9mph /  4.7km/h 11.0mph /  17.7km/h 10% 0.00in /  0mm 462.0 W/m2
15:51 85.3 °F /  29.6 °C 22.6 °F /  -5.2 °C 30.22in /  1023.2hPa West 0.9mph /  1.4km/h 4.0mph /  6.4km/h 10% 0.00in /  0mm 445.0 W/m2
15:57 85.3 °F /  29.6 °C 22.6 °F /  -5.2 °C 30.22in /  1023.2hPa Calm   1.0mph /  1.6km/h 10% 0.00in /  0mm 434.0 W/m2
16:03 85.6 °F /  29.8 °C 22.8 °F /  -5.1 °C 30.22in /  1023.2hPa Calm   7.0mph /  11.3km/h 10% 0.00in /  0mm 422.0 W/m2
16:10 85.6 °F /  29.8 °C 22.8 °F /  -5.1 °C 30.22in /  1023.2hPa West 2.9mph /  4.7km/h 7.0mph /  11.3km/h 10% 0.00in /  0mm 392.0 W/m2
16:16 85.6 °F /  29.8 °C 22.8 °F /  -5.1 °C 30.21in /  1022.9hPa Calm   5.0mph /  8km/h 10% 0.00in /  0mm 378.0 W/m2
16:22 85.6 °F /  29.8 °C 22.8 °F /  -5.1 °C 30.21in /  1022.9hPa Calm   1.0mph /  1.6km/h 10% 0.00in /  0mm 367.0 W/m2
16:28 85.6 °F /  29.8 °C 22.8 °F /  -5.1 °C 30.21in /  1022.9hPa NNW 2.0mph /  3.2km/h 2.0mph /  3.2km/h 10% 0.00in /  0mm 355.0 W/m2
16:34 85.6 °F /  29.8 °C 22.8 °F /  -5.1 °C 30.21in /  1022.9hPa ESE 2.0mph /  3.2km/h 5.0mph /  8km/h 10% 0.00in /  0mm 332.0 W/m2
16:41 85.3 °F /  29.6 °C 22.6 °F /  -5.2 °C 30.21in /  1022.9hPa Calm   1.0mph /  1.6km/h 10% 0.00in /  0mm 313.0 W/m2
16:46 85.3 °F /  29.6 °C 22.6 °F /  -5.2 °C 30.21in /  1022.9hPa West 2.0mph /  3.2km/h 3.0mph /  4.8km/h 10% 0.00in /  0mm 292.0 W/m2
16:52 85.3 °F /  29.6 °C 20.1 °F /  -6.6 °C 30.20in /  1022.6hPa NNE 6.9mph /  11.1km/h 8.0mph /  12.9km/h 9% 0.00in /  0mm 274.0 W/m2
16:58 84.9 °F /  29.4 °C 22.3 °F /  -5.4 °C 30.20in /  1022.6hPa WSW 4.0mph /  6.4km/h 9.0mph /  14.5km/h 10% 0.00in /  0mm 250.0 W/m2
17:05 84.7 °F /  29.3 °C 22.1 °F /  -5.5 °C 30.21in /  1022.9hPa NNW 2.9mph /  4.7km/h 6.0mph /  9.7km/h 10% 0.00in /  0mm 230.0 W/m2
17:11 84.6 °F /  29.2 °C 21.9 °F /  -5.6 °C 30.21in /  1022.9hPa NNW 0.9mph /  1.4km/h 6.0mph /  9.7km/h 10% 0.00in /  0mm 206.0 W/m2
17:17 84.4 °F /  29.1 °C 21.9 °F /  -5.6 °C 30.21in /  1022.9hPa Calm   6.0mph /  9.7km/h 10% 0.00in /  0mm 186.0 W/m2
17:23 83.8 °F /  28.8 °C 21.4 °F /  -5.9 °C 30.21in /  1022.9hPa Calm   5.0mph /  8km/h 10% 0.00in /  0mm 172.0 W/m2
17:29 83.7 °F /  28.7 °C 21.4 °F /  -5.9 °C 30.21in /  1022.9hPa Calm   5.0mph /  8km/h 10% 0.00in /  0mm 151.0 W/m2
17:35 83.3 °F /  28.5 °C 21.0 °F /  -6.1 °C 30.21in /  1022.9hPa NW 4.9mph /  7.9km/h 5.0mph /  8km/h 10% 0.00in /  0mm 130.0 W/m2
17:41 82.9 °F /  28.3 °C 20.8 °F /  -6.2 °C 30.21in /  1022.9hPa WNW 0.9mph /  1.4km/h 2.0mph /  3.2km/h 10% 0.00in /  0mm 113.0 W/m2
17:48 82.6 °F /  28.1 °C 22.8 °F /  -5.1 °C 30.21in /  1022.9hPa NNW 4.9mph /  7.9km/h 6.0mph /  9.7km/h 11% 0.00in /  0mm 97.0 W/m2
17:54 82.2 °F /  27.9 °C 22.5 °F /  -5.3 °C 30.22in /  1023.2hPa NNW 2.9mph /  4.7km/h 8.0mph /  12.9km/h 11% 0.00in /  0mm 77.0 W/m2
18:00 81.9 °F /  27.7 °C 22.3 °F /  -5.4 °C 30.22in /  1023.2hPa Calm   3.0mph /  4.8km/h 11% 0.00in /  0mm 49.0 W/m2
18:06 81.3 °F /  27.4 °C 21.7 °F /  -5.7 °C 30.22in /  1023.2hPa WNW 2.0mph /  3.2km/h 3.0mph /  4.8km/h 11% 0.00in /  0mm 37.0 W/m2
18:12 81.0 °F /  27.2 °C 21.6 °F /  -5.8 °C 30.22in /  1023.2hPa Calm   1.0mph /  1.6km/h 11% 0.00in /  0mm 30.0 W/m2
18:18 80.4 °F /  26.9 °C 21.0 °F /  -6.1 °C 30.22in /  1023.2hPa Calm   2.0mph /  3.2km/h 11% 0.00in /  0mm 23.0 W/m2
18:24 79.9 °F /  26.6 °C 24.6 °F /  -4.1 °C 30.22in /  1023.2hPa Calm   2.0mph /  3.2km/h 13% 0.00in /  0mm 16.0 W/m2
18:30 79.0 °F /  26.1 °C 23.9 °F /  -4.5 °C 30.23in /  1023.6hPa Calm   4.0mph /  6.4km/h 13% 0.00in /  0mm 11.0 W/m2
18:36 78.3 °F /  25.7 °C 23.4 °F /  -4.8 °C 30.23in /  1023.6hPa Calm   1.0mph /  1.6km/h 13% 0.00in /  0mm 7.0 W/m2
18:42 77.5 °F /  25.3 °C 22.8 °F /  -5.1 °C 30.23in /  1023.6hPa Calm   1.0mph /  1.6km/h 13% 0.00in /  0mm 0.0 W/m2
18:50 76.8 °F /  24.9 °C 24.1 °F /  -4.4 °C 30.23in /  1023.6hPa Calm     14% 0.00in /  0mm 0.0 W/m2
18:56 75.9 °F /  24.4 °C 23.4 °F /  -4.8 °C 30.23in /  1023.6hPa Calm     14% 0.00in /  0mm 0.0 W/m2
19:02 75.4 °F /  24.1 °C 22.8 °F /  -5.1 °C 30.24in /  1023.9hPa Calm     14% 0.00in /  0mm 0.0 W/m2
19:08 74.5 °F /  23.6 °C 22.1 °F /  -5.5 °C 30.24in /  1023.9hPa Calm     14% 0.00in /  0mm 0.0 W/m2
19:15 73.8 °F /  23.2 °C 24.8 °F /  -4 °C 30.24in /  1023.9hPa Calm     16% 0.00in /  0mm 0.0 W/m2
19:21 73.0 °F /  22.8 °C 22.6 °F /  -5.2 °C 30.24in /  1023.9hPa Calm     15% 0.00in /  0mm 0.0 W/m2
19:27 72.3 °F /  22.4 °C 22.1 °F /  -5.5 °C 30.25in /  1024.3hPa Calm     15% 0.00in /  0mm 0.0 W/m2
19:33 71.8 °F /  22.1 °C 23.2 °F /  -4.9 °C 30.25in /  1024.3hPa Calm     16% 0.00in /  0mm 0.0 W/m2
19:39 71.1 °F /  21.7 °C 22.6 °F /  -5.2 °C 30.25in /  1024.3hPa Calm     16% 0.00in /  0mm 0.0 W/m2
19:45 70.3 °F /  21.3 °C 23.5 °F /  -4.7 °C 30.25in /  1024.3hPa Calm     17% 0.00in /  0mm 0.0 W/m2
19:51 69.8 °F /  21 °C 23.0 °F /  -5 °C 30.25in /  1024.3hPa Calm     17% 0.00in /  0mm 0.0 W/m2
19:57 69.1 °F /  20.6 °C 22.5 °F /  -5.3 °C 30.25in /  1024.3hPa Calm   3.0mph /  4.8km/h 17% 0.00in /  0mm 0.0 W/m2
20:03 68.4 °F /  20.2 °C 21.9 °F /  -5.6 °C 30.26in /  1024.6hPa Calm   1.0mph /  1.6km/h 17% 0.00in /  0mm 0.0 W/m2
20:09 67.6 °F /  19.8 °C 22.6 °F /  -5.2 °C 30.26in /  1024.6hPa Calm     18% 0.00in /  0mm 0.0 W/m2
20:15 66.9 °F /  19.4 °C 22.1 °F /  -5.5 °C 30.26in /  1024.6hPa Calm     18% 0.00in /  0mm 0.0 W/m2
20:21 66.6 °F /  19.2 °C 23.0 °F /  -5 °C 30.27in /  1024.9hPa Calm     19% 0.00in /  0mm 0.0 W/m2
20:27 65.8 °F /  18.8 °C 21.2 °F /  -6 °C 30.27in /  1024.9hPa Calm     18% 0.00in /  0mm 0.0 W/m2
20:33 65.5 °F /  18.6 °C 23.4 °F /  -4.8 °C 30.27in /  1024.9hPa Calm     20% 0.00in /  0mm 0.0 W/m2
20:39 64.9 °F /  18.3 °C 22.8 °F /  -5.1 °C 30.27in /  1024.9hPa Calm     20% 0.00in /  0mm 0.0 W/m2
20:45 64.6 °F /  18.1 °C 22.6 °F /  -5.2 °C 30.27in /  1024.9hPa Calm     20% 0.00in /  0mm 0.0 W/m2
20:51 64.0 °F /  17.8 °C 21.0 °F /  -6.1 °C 30.28in /  1025.3hPa Calm     19% 0.00in /  0mm 0.0 W/m2
20:57 63.7 °F /  17.6 °C 23.0 °F /  -5 °C 30.28in /  1025.3hPa Calm     21% 0.00in /  0mm 0.0 W/m2
21:03 63.1 °F /  17.3 °C 22.6 °F /  -5.2 °C 30.28in /  1025.3hPa Calm     21% 0.00in /  0mm 0.0 W/m2
21:09 63.0 °F /  17.2 °C 23.5 °F /  -4.7 °C 30.28in /  1025.3hPa Calm     22% 0.00in /  0mm 0.0 W/m2
21:15 62.6 °F /  17 °C 22.1 °F /  -5.5 °C 30.28in /  1025.3hPa Calm     21% 0.00in /  0mm 0.0 W/m2
21:21 62.4 °F /  16.9 °C 23.0 °F /  -5 °C 30.28in /  1025.3hPa Calm     22% 0.00in /  0mm 0.0 W/m2
21:27 62.4 °F /  16.9 °C 23.0 °F /  -5 °C 30.29in /  1025.6hPa Calm   1.0mph /  1.6km/h 22% 0.00in /  0mm 0.0 W/m2
21:33 62.4 °F /  16.9 °C 23.0 °F /  -5 °C 30.29in /  1025.6hPa Calm     22% 0.00in /  0mm 0.0 W/m2
21:39 62.2 °F /  16.8 °C 23.0 °F /  -5 °C 30.29in /  1025.6hPa Calm   1.0mph /  1.6km/h 22% 0.00in /  0mm 0.0 W/m2
21:45 62.1 °F /  16.7 °C 22.8 °F /  -5.1 °C 30.29in /  1025.6hPa Calm     22% 0.00in /  0mm 0.0 W/m2
21:51 61.9 °F /  16.6 °C 23.7 °F /  -4.6 °C 30.29in /  1025.6hPa Calm     23% 0.00in /  0mm 0.0 W/m2
21:57 61.5 °F /  16.4 °C 22.3 °F /  -5.4 °C 30.29in /  1025.6hPa Calm   1.0mph /  1.6km/h 22% 0.00in /  0mm 0.0 W/m2
22:03 61.3 °F /  16.3 °C 22.1 °F /  -5.5 °C 30.29in /  1025.6hPa Calm   1.0mph /  1.6km/h 22% 0.00in /  0mm 0.0 W/m2
22:09 61.5 °F /  16.4 °C 23.4 °F /  -4.8 °C 30.29in /  1025.6hPa Calm   1.0mph /  1.6km/h 23% 0.00in /  0mm 0.0 W/m2
22:15 61.2 °F /  16.2 °C 23.0 °F /  -5 °C 30.29in /  1025.6hPa Calm   1.0mph /  1.6km/h 23% 0.00in /  0mm 0.0 W/m2
22:21 61.0 °F /  16.1 °C 22.8 °F /  -5.1 °C 30.29in /  1025.6hPa Calm     23% 0.00in /  0mm 0.0 W/m2
22:27 60.4 °F /  15.8 °C 23.5 °F /  -4.7 °C 30.30in /  1026hPa Calm     24% 0.00in /  0mm 0.0 W/m2
22:33 60.1 °F /  15.6 °C 23.2 °F /  -4.9 °C 30.30in /  1026hPa Calm     24% 0.00in /  0mm 0.0 W/m2
22:39 59.7 °F /  15.4 °C 22.8 °F /  -5.1 °C 30.30in /  1026hPa Calm   2.0mph /  3.2km/h 24% 0.00in /  0mm 0.0 W/m2
22:45 59.7 °F /  15.4 °C 21.9 °F /  -5.6 °C 30.30in /  1026hPa Calm   1.0mph /  1.6km/h 23% 0.00in /  0mm 0.0 W/m2
22:51 59.7 °F /  15.4 °C 23.9 °F /  -4.5 °C 30.31in /  1026.3hPa Calm   2.0mph /  3.2km/h 25% 0.00in /  0mm 0.0 W/m2
22:57 59.7 °F /  15.4 °C 21.9 °F /  -5.6 °C 30.30in /  1026hPa Calm   5.0mph /  8km/h 23% 0.00in /  0mm 0.0 W/m2
23:03 59.9 °F /  15.5 °C 23.0 °F /  -5 °C 30.31in /  1026.3hPa Calm     24% 0.00in /  0mm 0.0 W/m2
23:09 60.1 °F /  15.6 °C 23.2 °F /  -4.9 °C 30.31in /  1026.3hPa Calm   2.0mph /  3.2km/h 24% 0.00in /  0mm 0.0 W/m2
23:15 60.1 °F /  15.6 °C 23.2 °F /  -4.9 °C 30.31in /  1026.3hPa NNE 0.9mph /  1.4km/h 3.0mph /  4.8km/h 24% 0.00in /  0mm 0.0 W/m2
23:21 60.1 °F /  15.6 °C 24.1 °F /  -4.4 °C 30.31in /  1026.3hPa Calm   1.0mph /  1.6km/h 25% 0.00in /  0mm 0.0 W/m2
23:27 60.1 °F /  15.6 °C 24.1 °F /  -4.4 °C 30.31in /  1026.3hPa Calm     25% 0.00in /  0mm 0.0 W/m2
23:33 60.1 °F /  15.6 °C 24.1 °F /  -4.4 °C 30.31in /  1026.3hPa Calm     25% 0.00in /  0mm 0.0 W/m2
23:39 59.7 °F /  15.4 °C 23.9 °F /  -4.5 °C 30.31in /  1026.3hPa Calm     25% 0.00in /  0mm 0.0 W/m2
23:45 59.5 °F /  15.3 °C 23.7 °F /  -4.6 °C 30.31in /  1026.3hPa Calm     25% 0.00in /  0mm 0.0 W/m2
23:51 59.4 °F /  15.2 °C 23.5 °F /  -4.7 °C 30.31in /  1026.3hPa Calm     25% 0.00in /  0mm 0.0 W/m2
23:57 59.2 °F /  15.1 °C 24.3 °F /  -4.3 °C 30.31in /  1026.3hPa Calm     26% 0.00in /  0mm 0.0 W/m2
Olympia, Windhoek, Namibia
Compliments of Weather Underground - 3 mb